EW7961 Weather Reports


time (UTC)temp
F
wind
direction
speed
knots
gust
knots
rain 1hr
in
rain 24hr
in
rain mn
in
humidity
%
barometer
mb
20260906053021 87 285 0.9 1.7 0.00 0.00 0.00 70 1014.6
20260906052021 87 277 0.9 2.6 0.00 0.00 0.00 70 1014.6
20260906051021 87 282 0.9 1.7 0.00 0.00 0.00 69 1014.5
20260906050019 88 283 0.9 1.7 0.00 0.00 0.00 69 1014.4
20260906045019 88 284 0.9 2.6 0.00 0.00 0.00 68 1014.4
20260906044019 88 286 0.9 2.6 0.00 0.00 0.00 68 1014.3
20260906043059 88 287 0.9 2.6 0.00 0.00 0.00 67 1014.3
20260906042022 88 288 0.9 2.6 0.00 0.00 0.00 66 1014.3
20260906041059 89 283 1.7 3.5 0.00 0.00 0.00 66 1014.1
20260906040019 89 288 0.9 2.6 0.00 0.00 0.00 65 1014.0
20260906035019 89 286 0.9 1.7 0.00 0.00 0.00 65 1014.0
20260906034019 89 293 0.9 1.7 0.00 0.00 0.00 63 1013.9
20260906032020 90 285 0.9 2.6 0.00 0.00 0.00 61 1013.7
20260906031100 90 289 0.9 2.6 0.00 0.00 0.00 60 1013.7
20260906030017 90 287 0.9 2.6 0.00 0.00 0.00 59 1013.6
20260906025020 90 288 0.9 2.6 0.00 0.00 0.00 58 1013.4
20260906024020 90 289 0.9 2.6 0.00 0.00 0.00 57 1013.3
20260906022017 91 290 0.9 1.7 0.00 0.00 0.00 54 1013.1
20260906021018 91 292 0.9 1.7 0.00 0.00 0.00 53 1013.0
20260906020020 91 289 0.9 1.7 0.00 0.00 0.00 53 1012.8
20260906015020 91 290 0.9 2.6 0.00 0.00 0.00 53 1012.7
20260906014019 91 291 0.9 2.6 0.00 0.00 0.00 54 1012.7
20260906005018 93 290 0.9 1.7 0.00 0.00 0.00 51 1012.1
20260906004018 93 290 0.9 1.7 0.00 0.00 0.00 50 1012.1
20260906003019 94 293 0.9 1.7 0.00 0.00 0.00 50 1012.1
20260906001059 95 295 1.7 3.5 0.00 0.00 0.00 48 1012.1
20260906000059 95 301 0.9 1.7 0.00 0.00 0.00 47 1012.1
20260905235019 96 297 0.9 2.6 0.00 0.00 0.00 45 1012.2
20260905234059 96 288 0.9 2.6 0.00 0.00 0.00 45 1012.1
20260905233019 97 285 1.7 2.6 0.00 0.00 0.00 44 1012.1
20260905232019 97 306 1.7 3.5 0.00 0.00 0.00 44 1012.1
20260905231020 98 298 0.9 1.7 0.00 0.00 0.00 43 1012.1
20260905230019 99 317 1.7 4.3 0.00 0.00 0.00 40 1012.0
20260905225020 99 289 1.7 4.3 0.00 0.00 0.00 40 1012.0
20260905224017 99 289 1.7 3.5 0.00 0.00 0.00 40 1011.9
20260905223103 100 280 1.7 3.5 0.00 0.00 0.00 40 1011.8
20260905222100 101 296 1.7 3.5 0.00 0.00 0.00 41 1011.9
20260905221020 101 299 0.9 2.6 0.00 0.00 0.00 40 1012.0
20260905220018 102 300 1.7 4.3 0.00 0.00 0.00 40 1012.0
20260905215017 102 279 1.7 4.3 0.00 0.00 0.00 39 1011.9
20260905214026 102 281 1.7 3.5 0.00 0.00 0.00 39 1011.8
20260905213024 101 300 1.7 4.3 0.00 0.00 0.00 40 1011.8
20260905212018 102 295 1.7 4.3 0.00 0.00 0.00 39 1011.9
20260905211018 102 277 1.7 4.3 0.00 0.00 0.00 38 1011.9
20260905210018 102 294 1.7 4.3 0.00 0.00 0.00 38 1012.0
20260905205058 102 306 1.7 2.6 0.00 0.00 0.00 37 1012.1
20260905192531 100 296 1.7 4.3 0.00 0.00 0.00 40 1013.0
20260905191531 100 269 2.6 3.5 0.00 0.00 0.00 40 1013.0
20260905190531 99 315 0.9 3.5 0.00 0.00 0.00 41 1013.1
20260905185531 99 300 1.7 3.5 0.00 0.00 0.00 41 1013.2
20260905184531 99 282 1.7 3.5 0.00 0.00 0.00 41 1013.4
20260905183531 99 284 2.6 3.5 0.00 0.00 0.00 41 1013.5
20260905182531 99 310 1.7 2.6 0.00 0.00 0.00 42 1013.6
20260905181520 99 290 1.7 5.2 0.00 0.00 0.00 44 1013.6
20260905180531 98 291 1.7 3.5 0.00 0.00 0.00 45 1013.7
20260905175517 98 291 1.7 3.5 0.00 0.00 0.00 46 1013.7
20260905174532 97 299 0.9 1.7 0.00 0.00 0.00 47 1013.7
20260905173520 97 275 1.7 4.3 0.00 0.00 0.00 47 1013.9
20260905172532 97 270 2.6 4.3 0.00 0.00 0.00 48 1014.0
20260905171532 96 314 1.7 1.7 0.00 0.00 0.00 48 1014.2
20260905170518 96 304 1.7 2.6 0.00 0.00 0.00 49 1014.3
20260905165517 95 301 1.7 3.5 0.00 0.00 0.00 50 1014.4
20260905164517 94 292 2.6 4.3 0.00 0.00 0.00 50 1014.5
20260905163532 94 280 1.7 3.5 0.00 0.00 0.00 51 1014.6
20260905162518 94 304 1.7 2.6 0.00 0.00 0.00 52 1014.7
20260905161518 93 290 1.7 2.6 0.00 0.00 0.00 53 1014.7
20260905160558 93 287 1.7 3.5 0.00 0.00 0.00 54 1014.7
20260905155518 92 281 1.7 2.6 0.00 0.00 0.00 55 1014.8
20260905154518 91 276 1.7 3.5 0.00 0.00 0.00 55 1014.8
20260905153559 91 270 1.7 3.5 0.00 0.00 0.00 56 1014.9
20260905152518 90 281 1.7 3.5 0.00 0.00 0.00 57 1014.9
20260905151558 89 285 1.7 2.6 0.00 0.00 0.00 58 1014.9
20260905150519 88 279 1.7 2.6 0.00 0.00 0.00 60 1014.9
20260905145559 88 286 1.7 2.6 0.00 0.00 0.00 62 1015.0
20260905144559 87 277 1.7 1.7 0.00 0.00 0.00 63 1014.9
20260905143519 87 279 1.7 2.6 0.00 0.00 0.00 63 1014.9
20260905142519 87 278 1.7 2.6 0.00 0.00 0.00 63 1014.9
20260905141559 87 292 0.9 1.7 0.00 0.00 0.00 64 1014.9
20260905140519 86 272 1.7 2.6 0.00 0.00 0.00 64 1014.9
20260905135519 86 285 1.7 2.6 0.00 0.00 0.00 65 1014.9
20260905134600 85 269 0.9 2.6 0.00 0.00 0.00 65 1014.8
20260905133655 85 277 1.7 1.7 0.00 0.00 0.00 67 1014.8
20260905132600 85 275 0.9 1.7 0.00 0.00 0.00 67 1014.7
20260905131520 85 288 0.9 1.7 0.00 0.00 0.00 67 1014.7
20260905130520 85 276 1.7 1.7 0.00 0.00 0.00 67 1014.7
20260905125520 85 272 0.9 2.6 0.00 0.00 0.00 67 1014.6
20260905124521 84 269 1.7 1.7 0.00 0.00 0.00 69 1014.5
20260905122601 82 280 1.7 1.7 0.00 0.00 0.00 76 1014.5
20260905121521 82 270 1.7 1.7 0.00 0.00 0.00 77 1014.4
20260905120521 82 277 0.9 1.7 0.00 0.00 0.00 77 1014.4
20260905115521 82 277 1.7 1.7 0.00 0.00 0.00 77 1014.3
20260905113521 82 272 1.7 1.7 0.00 0.00 0.00 76 1014.1
20260905112521 82 272 0.9 1.7 0.00 0.00 0.00 76 1014.1
20260905111601 82 281 0.9 1.7 0.00 0.00 0.00 75 1014.0
20260905110522 82 271 0.9 1.7 0.00 0.00 0.00 75 1013.9
20260905105522 82 275 0.9 1.7 0.00 0.00 0.00 74 1013.9
20260905104602 83 275 0.9 1.7 0.00 0.00 0.00 74 1013.9
20260905103522 83 283 0.0 0.9 0.00 0.00 0.00 73 1013.9
20260905102522 83 286 0.9 1.7 0.00 0.00 0.00 73 1014.0
20260905101522 83 275 0.9 1.7 0.00 0.00 0.00 73 1014.0
20260905100522 83 276 0.9 1.7 0.00 0.00 0.00 73 1014.1
20260905095603 83 275 0.9 1.7 0.00 0.00 0.00 72 1014.0
20260905094522 83 278 0.9 1.7 0.00 0.00 0.00 72 1013.9
20260905093522 84 282 0.9 0.9 0.00 0.00 0.00 72 1013.9
20260905092606 84 275 0.9 1.7 0.00 0.00 0.00 71 1014.0
20260905091603 84 275 0.9 0.9 0.00 0.00 0.00 70 1014.0
20260905090540 84 276 1.7 1.7 0.00 0.00 0.00 70 1014.0
20260905085523 85 282 0.9 1.7 0.00 0.00 0.00 69 1013.9
20260905084524 85 283 0.9 1.7 0.00 0.00 0.00 69 1013.9
20260905083524 85 280 1.7 1.7 0.00 0.00 0.00 69 1013.9
20260905081524 85 285 0.9 0.9 0.00 0.00 0.00 69 1014.1
20260905080524 85 283 0.9 1.7 0.00 0.00 0.00 69 1014.1
20260905075524 85 283 0.9 1.7 0.00 0.00 0.00 69 1014.2
20260905074604 85 281 1.7 1.7 0.00 0.00 0.00 68 1014.2
20260905073524 85 279 0.9 1.7 0.00 0.00 0.00 67 1014.3
20260905072605 86 285 0.9 1.7 0.00 0.00 0.00 67 1014.3
20260905071539 86 283 0.9 1.7 0.00 0.00 0.00 67 1014.2
20260905070525 86 276 1.7 1.7 0.00 0.00 0.00 67 1014.3
20260905065524 86 265 0.9 0.9 0.00 0.00 0.00 67 1014.3
20260905064524 86 288 0.0 0.9 0.00 0.00 0.00 66 1014.3
20260905063525 86 283 0.9 1.7 0.00 0.00 0.00 66 1014.2
20260905062606 86 282 0.9 1.7 0.00 0.00 0.00 65 1014.3
20260905061525 86 293 0.9 0.9 0.00 0.00 0.00 65 1014.4
20260905060606 87 292 0.9 0.9 0.00 0.00 0.00 64 1014.4
20260905055526 87 288 0.9 0.9 0.00 0.00 0.00 64 1014.4
20260905054517 87 284 0.9 1.7 0.00 0.00 0.00 64 1014.4
20260905053517 87 285 0.9 1.7 0.00 0.00 0.00 63 1014.4